sensor_id;sensor_type;location;lat;lon;timestamp;temperature;humidity
69543;SHT31;56762;49.494;11.768;2022-10-22T00:01:03;12.33;93.15
69543;SHT31;56762;49.494;11.768;2022-10-22T00:03:31;12.33;92.97
69543;SHT31;56762;49.494;11.768;2022-10-22T00:05:59;12.34;93.09
69543;SHT31;56762;49.494;11.768;2022-10-22T00:08:28;12.33;93.05
69543;SHT31;56762;49.494;11.768;2022-10-22T00:10:56;12.33;93.15
69543;SHT31;56762;49.494;11.768;2022-10-22T00:13:26;12.33;93.18
69543;SHT31;56762;49.494;11.768;2022-10-22T00:15:54;12.28;93.20
69543;SHT31;56762;49.494;11.768;2022-10-22T00:18:22;12.31;93.18
69543;SHT31;56762;49.494;11.768;2022-10-22T00:20:51;12.31;93.15
69543;SHT31;56762;49.494;11.768;2022-10-22T00:23:18;12.33;93.16
69543;SHT31;56762;49.494;11.768;2022-10-22T00:25:47;12.31;93.10
69543;SHT31;56762;49.494;11.768;2022-10-22T00:28:14;12.34;93.00
69543;SHT31;56762;49.494;11.768;2022-10-22T00:30:44;12.34;93.08
69543;SHT31;56762;49.494;11.768;2022-10-22T00:33:12;12.34;93.03
69543;SHT31;56762;49.494;11.768;2022-10-22T00:35:42;12.36;92.85
69543;SHT31;56762;49.494;11.768;2022-10-22T00:38:10;12.37;93.02
69543;SHT31;56762;49.494;11.768;2022-10-22T00:40:38;12.36;93.03
69543;SHT31;56762;49.494;11.768;2022-10-22T00:43:10;12.37;92.99
69543;SHT31;56762;49.494;11.768;2022-10-22T00:45:38;12.37;92.92
69543;SHT31;56762;49.494;11.768;2022-10-22T00:48:09;12.37;93.04
69543;SHT31;56762;49.494;11.768;2022-10-22T00:50:41;12.38;93.07
69543;SHT31;56762;49.494;11.768;2022-10-22T00:53:12;12.40;93.08
69543;SHT31;56762;49.494;11.768;2022-10-22T00:55:42;12.42;93.12
69543;SHT31;56762;49.494;11.768;2022-10-22T00:58:12;12.40;93.02
69543;SHT31;56762;49.494;11.768;2022-10-22T01:00:41;12.40;93.06
69543;SHT31;56762;49.494;11.768;2022-10-22T01:03:11;12.41;92.95
69543;SHT31;56762;49.494;11.768;2022-10-22T01:05:42;12.42;92.91
69543;SHT31;56762;49.494;11.768;2022-10-22T01:08:16;12.41;92.86
69543;SHT31;56762;49.494;11.768;2022-10-22T01:10:53;12.41;92.84
69543;SHT31;56762;49.494;11.768;2022-10-22T01:13:32;12.41;92.80
69543;SHT31;56762;49.494;11.768;2022-10-22T01:16:08;12.38;92.99
69543;SHT31;56762;49.494;11.768;2022-10-22T01:18:44;12.37;93.04
69543;SHT31;56762;49.494;11.768;2022-10-22T01:21:22;12.40;92.88
69543;SHT31;56762;49.494;11.768;2022-10-22T01:27:19;12.36;93.08
69543;SHT31;56762;49.494;11.768;2022-10-22T01:29:51;12.34;93.02
69543;SHT31;56762;49.494;11.768;2022-10-22T01:32:22;12.36;93.17
69543;SHT31;56762;49.494;11.768;2022-10-22T01:34:55;12.34;93.06
69543;SHT31;56762;49.494;11.768;2022-10-22T01:37:29;12.33;93.12
69543;SHT31;56762;49.494;11.768;2022-10-22T01:39:59;12.34;93.13
69543;SHT31;56762;49.494;11.768;2022-10-22T01:42:28;12.30;93.19
69543;SHT31;56762;49.494;11.768;2022-10-22T01:44:57;12.31;93.20
69543;SHT31;56762;49.494;11.768;2022-10-22T01:47:38;12.34;93.17
69543;SHT31;56762;49.494;11.768;2022-10-22T01:50:22;12.31;93.18
69543;SHT31;56762;49.494;11.768;2022-10-22T01:53:07;12.34;93.06
69543;SHT31;56762;49.494;11.768;2022-10-22T01:55:49;12.34;93.10
69543;SHT31;56762;49.494;11.768;2022-10-22T01:58:30;12.30;93.21
69543;SHT31;56762;49.494;11.768;2022-10-22T02:01:06;12.33;93.19
69543;SHT31;56762;49.494;11.768;2022-10-22T02:03:39;12.31;93.33
69543;SHT31;56762;49.494;11.768;2022-10-22T02:06:15;12.33;93.36
69543;SHT31;56762;49.494;11.768;2022-10-22T02:08:44;12.28;93.29
69543;SHT31;56762;49.494;11.768;2022-10-22T02:11:14;12.30;93.38
69543;SHT31;56762;49.494;11.768;2022-10-22T02:13:48;12.28;93.43
69543;SHT31;56762;49.494;11.768;2022-10-22T02:16:20;12.30;93.53
69543;SHT31;56762;49.494;11.768;2022-10-22T02:18:53;12.28;93.54
69543;SHT31;56762;49.494;11.768;2022-10-22T02:21:21;12.30;93.58
69543;SHT31;56762;49.494;11.768;2022-10-22T02:23:49;12.30;93.44
69543;SHT31;56762;49.494;11.768;2022-10-22T02:26:21;12.27;93.39
69543;SHT31;56762;49.494;11.768;2022-10-22T02:28:57;12.26;93.42
69543;SHT31;56762;49.494;11.768;2022-10-22T02:31:30;12.24;93.52
69543;SHT31;56762;49.494;11.768;2022-10-22T02:34:02;12.24;93.65
69543;SHT31;56762;49.494;11.768;2022-10-22T02:36:34;12.23;93.58
69543;SHT31;56762;49.494;11.768;2022-10-22T02:39:03;12.18;93.56
69543;SHT31;56762;49.494;11.768;2022-10-22T02:41:32;12.21;93.59
69543;SHT31;56762;49.494;11.768;2022-10-22T02:44:00;12.21;93.59
69543;SHT31;56762;49.494;11.768;2022-10-22T02:46:30;12.18;93.60
69543;SHT31;56762;49.494;11.768;2022-10-22T02:48:58;12.18;93.67
69543;SHT31;56762;49.494;11.768;2022-10-22T02:51:26;12.20;93.77
69543;SHT31;56762;49.494;11.768;2022-10-22T02:53:54;12.20;93.73
69543;SHT31;56762;49.494;11.768;2022-10-22T02:56:22;12.18;93.71
69543;SHT31;56762;49.494;11.768;2022-10-22T02:58:50;12.20;93.71
69543;SHT31;56762;49.494;11.768;2022-10-22T03:01:18;12.17;93.86
69543;SHT31;56762;49.494;11.768;2022-10-22T03:03:47;12.20;93.92
69543;SHT31;56762;49.494;11.768;2022-10-22T03:06:16;12.20;93.90
69543;SHT31;56762;49.494;11.768;2022-10-22T03:08:44;12.20;93.79
69543;SHT31;56762;49.494;11.768;2022-10-22T03:11:12;12.20;93.78
69543;SHT31;56762;49.494;11.768;2022-10-22T03:13:40;12.23;93.83
69543;SHT31;56762;49.494;11.768;2022-10-22T03:16:09;12.20;93.88
69543;SHT31;56762;49.494;11.768;2022-10-22T03:18:37;12.21;93.89
69543;SHT31;56762;49.494;11.768;2022-10-22T03:21:09;12.21;93.93
69543;SHT31;56762;49.494;11.768;2022-10-22T03:23:39;12.23;93.97
69543;SHT31;56762;49.494;11.768;2022-10-22T03:26:09;12.23;93.87
69543;SHT31;56762;49.494;11.768;2022-10-22T03:28:41;12.21;93.79
69543;SHT31;56762;49.494;11.768;2022-10-22T03:31:09;12.21;93.60
69543;SHT31;56762;49.494;11.768;2022-10-22T03:33:37;12.21;93.61
69543;SHT31;56762;49.494;11.768;2022-10-22T03:36:07;12.20;93.62
69543;SHT31;56762;49.494;11.768;2022-10-22T03:38:37;12.18;93.76
69543;SHT31;56762;49.494;11.768;2022-10-22T03:41:06;12.17;93.85
69543;SHT31;56762;49.494;11.768;2022-10-22T03:43:36;12.18;93.84
69543;SHT31;56762;49.494;11.768;2022-10-22T03:46:06;12.18;93.84
69543;SHT31;56762;49.494;11.768;2022-10-22T03:48:34;12.21;93.83
69543;SHT31;56762;49.494;11.768;2022-10-22T03:51:03;12.18;93.78
69543;SHT31;56762;49.494;11.768;2022-10-22T03:53:35;12.16;93.86
69543;SHT31;56762;49.494;11.768;2022-10-22T03:56:06;12.12;93.74
69543;SHT31;56762;49.494;11.768;2022-10-22T03:58:34;12.09;93.99
69543;SHT31;56762;49.494;11.768;2022-10-22T04:01:07;12.12;93.99
69543;SHT31;56762;49.494;11.768;2022-10-22T04:03:35;12.13;93.90
69543;SHT31;56762;49.494;11.768;2022-10-22T04:06:05;12.13;94.08
69543;SHT31;56762;49.494;11.768;2022-10-22T04:08:35;12.13;94.15
69543;SHT31;56762;49.494;11.768;2022-10-22T04:11:09;12.12;94.09
69543;SHT31;56762;49.494;11.768;2022-10-22T04:13:37;12.13;94.04
69543;SHT31;56762;49.494;11.768;2022-10-22T04:16:06;12.18;94.04
69543;SHT31;56762;49.494;11.768;2022-10-22T04:18:35;12.18;93.93
69543;SHT31;56762;49.494;11.768;2022-10-22T04:21:06;12.21;93.46
69543;SHT31;56762;49.494;11.768;2022-10-22T04:23:36;12.26;93.51
69543;SHT31;56762;49.494;11.768;2022-10-22T04:26:06;12.23;93.43
69543;SHT31;56762;49.494;11.768;2022-10-22T04:28:34;12.17;93.72
69543;SHT31;56762;49.494;11.768;2022-10-22T04:31:06;12.14;94.10
69543;SHT31;56762;49.494;11.768;2022-10-22T04:33:35;12.13;94.19
69543;SHT31;56762;49.494;11.768;2022-10-22T04:36:07;12.10;94.16
69543;SHT31;56762;49.494;11.768;2022-10-22T04:38:38;12.10;94.21
69543;SHT31;56762;49.494;11.768;2022-10-22T04:41:10;12.10;94.18
69543;SHT31;56762;49.494;11.768;2022-10-22T04:43:39;12.13;94.20
69543;SHT31;56762;49.494;11.768;2022-10-22T04:46:07;12.14;94.11
69543;SHT31;56762;49.494;11.768;2022-10-22T04:48:37;12.14;94.12
69543;SHT31;56762;49.494;11.768;2022-10-22T04:51:06;12.18;94.15
69543;SHT31;56762;49.494;11.768;2022-10-22T04:53:35;12.18;94.19
69543;SHT31;56762;49.494;11.768;2022-10-22T04:56:08;12.17;94.17
69543;SHT31;56762;49.494;11.768;2022-10-22T04:58:38;12.21;94.13
69543;SHT31;56762;49.494;11.768;2022-10-22T05:01:10;12.24;94.19
69543;SHT31;56762;49.494;11.768;2022-10-22T05:03:40;12.24;94.17
69543;SHT31;56762;49.494;11.768;2022-10-22T05:06:08;12.21;94.11
69543;SHT31;56762;49.494;11.768;2022-10-22T05:08:36;12.21;94.09
69543;SHT31;56762;49.494;11.768;2022-10-22T05:11:15;12.20;94.09
69543;SHT31;56762;49.494;11.768;2022-10-22T05:13:45;12.20;94.02
69543;SHT31;56762;49.494;11.768;2022-10-22T05:16:14;12.20;93.98
69543;SHT31;56762;49.494;11.768;2022-10-22T05:18:43;12.18;94.01
69543;SHT31;56762;49.494;11.768;2022-10-22T05:21:14;12.18;93.93
69543;SHT31;56762;49.494;11.768;2022-10-22T05:23:42;12.17;93.96
69543;SHT31;56762;49.494;11.768;2022-10-22T05:26:14;12.20;94.00
69543;SHT31;56762;49.494;11.768;2022-10-22T05:28:42;12.18;94.04
69543;SHT31;56762;49.494;11.768;2022-10-22T05:31:11;12.18;94.15
69543;SHT31;56762;49.494;11.768;2022-10-22T05:33:40;12.18;94.08
69543;SHT31;56762;49.494;11.768;2022-10-22T05:36:11;12.20;94.01
69543;SHT31;56762;49.494;11.768;2022-10-22T05:38:40;12.20;94.05
69543;SHT31;56762;49.494;11.768;2022-10-22T05:41:09;12.20;94.10
69543;SHT31;56762;49.494;11.768;2022-10-22T05:43:39;12.20;94.19
69543;SHT31;56762;49.494;11.768;2022-10-22T05:46:09;12.21;94.10
69543;SHT31;56762;49.494;11.768;2022-10-22T05:48:38;12.23;94.13
69543;SHT31;56762;49.494;11.768;2022-10-22T05:51:07;12.21;93.98
69543;SHT31;56762;49.494;11.768;2022-10-22T05:53:36;12.23;93.86
69543;SHT31;56762;49.494;11.768;2022-10-22T05:56:06;12.21;94.07
69543;SHT31;56762;49.494;11.768;2022-10-22T05:58:35;12.21;93.91
69543;SHT31;56762;49.494;11.768;2022-10-22T06:01:06;12.20;93.83
69543;SHT31;56762;49.494;11.768;2022-10-22T06:03:35;12.18;93.91
69543;SHT31;56762;49.494;11.768;2022-10-22T06:06:06;12.17;93.89
69543;SHT31;56762;49.494;11.768;2022-10-22T06:08:38;12.14;93.74
69543;SHT31;56762;49.494;11.768;2022-10-22T06:11:06;12.14;93.82
69543;SHT31;56762;49.494;11.768;2022-10-22T06:13:34;12.16;93.77
69543;SHT31;56762;49.494;11.768;2022-10-22T06:16:02;12.14;93.89
69543;SHT31;56762;49.494;11.768;2022-10-22T06:18:32;12.16;93.92
69543;SHT31;56762;49.494;11.768;2022-10-22T06:21:05;12.14;93.91
69543;SHT31;56762;49.494;11.768;2022-10-22T06:23:34;12.12;93.87
69543;SHT31;56762;49.494;11.768;2022-10-22T06:26:04;12.13;93.90
69543;SHT31;56762;49.494;11.768;2022-10-22T06:28:32;12.10;93.95
69543;SHT31;56762;49.494;11.768;2022-10-22T06:31:01;12.07;94.01
69543;SHT31;56762;49.494;11.768;2022-10-22T06:33:33;12.07;93.86
69543;SHT31;56762;49.494;11.768;2022-10-22T06:36:09;12.04;93.82
69543;SHT31;56762;49.494;11.768;2022-10-22T06:38:38;12.03;94.04
69543;SHT31;56762;49.494;11.768;2022-10-22T06:41:08;12.04;94.09
69543;SHT31;56762;49.494;11.768;2022-10-22T06:43:37;12.06;94.02
69543;SHT31;56762;49.494;11.768;2022-10-22T06:46:07;12.06;94.00
69543;SHT31;56762;49.494;11.768;2022-10-22T06:48:48;12.12;94.02
69543;SHT31;56762;49.494;11.768;2022-10-22T06:51:16;12.10;94.09
69543;SHT31;56762;49.494;11.768;2022-10-22T06:53:44;12.10;93.89
69543;SHT31;56762;49.494;11.768;2022-10-22T06:56:13;12.09;93.83
69543;SHT31;56762;49.494;11.768;2022-10-22T06:58:42;12.12;93.98
69543;SHT31;56762;49.494;11.768;2022-10-22T07:01:12;12.13;94.07
69543;SHT31;56762;49.494;11.768;2022-10-22T07:03:41;12.16;94.07
69543;SHT31;56762;49.494;11.768;2022-10-22T07:06:13;12.18;94.00
69543;SHT31;56762;49.494;11.768;2022-10-22T07:08:41;12.21;93.98
69543;SHT31;56762;49.494;11.768;2022-10-22T07:11:15;12.23;94.02
69543;SHT31;56762;49.494;11.768;2022-10-22T07:13:44;12.23;93.96
69543;SHT31;56762;49.494;11.768;2022-10-22T07:16:13;12.27;94.18
69543;SHT31;56762;49.494;11.768;2022-10-22T07:18:42;12.33;94.21
69543;SHT31;56762;49.494;11.768;2022-10-22T07:21:15;12.40;94.35
69543;SHT31;56762;49.494;11.768;2022-10-22T07:23:44;12.40;94.21
69543;SHT31;56762;49.494;11.768;2022-10-22T07:26:14;12.44;94.23
69543;SHT31;56762;49.494;11.768;2022-10-22T07:28:43;12.51;94.21
69543;SHT31;56762;49.494;11.768;2022-10-22T07:31:12;12.54;94.13
69543;SHT31;56762;49.494;11.768;2022-10-22T07:33:40;12.55;94.12
69543;SHT31;56762;49.494;11.768;2022-10-22T07:36:14;12.61;93.88
69543;SHT31;56762;49.494;11.768;2022-10-22T07:38:44;12.64;93.83
69543;SHT31;56762;49.494;11.768;2022-10-22T07:41:13;12.68;93.68
69543;SHT31;56762;49.494;11.768;2022-10-22T07:43:42;12.69;93.54
69543;SHT31;56762;49.494;11.768;2022-10-22T07:46:10;12.75;93.55
69543;SHT31;56762;49.494;11.768;2022-10-22T07:48:38;12.79;93.51
69543;SHT31;56762;49.494;11.768;2022-10-22T07:51:06;12.87;93.48
69543;SHT31;56762;49.494;11.768;2022-10-22T07:53:36;12.89;93.51
69543;SHT31;56762;49.494;11.768;2022-10-22T07:56:04;12.91;93.32
69543;SHT31;56762;49.494;11.768;2022-10-22T07:58:33;12.92;93.18
69543;SHT31;56762;49.494;11.768;2022-10-22T08:01:02;12.95;93.15
69543;SHT31;56762;49.494;11.768;2022-10-22T08:03:32;12.96;92.92
69543;SHT31;56762;49.494;11.768;2022-10-22T08:06:01;13.05;92.37
69543;SHT31;56762;49.494;11.768;2022-10-22T08:08:29;13.00;92.61
69543;SHT31;56762;49.494;11.768;2022-10-22T08:11:00;13.02;93.09
69543;SHT31;56762;49.494;11.768;2022-10-22T08:13:29;13.05;93.29
69543;SHT31;56762;49.494;11.768;2022-10-22T08:15:58;13.05;93.51
69543;SHT31;56762;49.494;11.768;2022-10-22T08:18:27;13.08;93.38
69543;SHT31;56762;49.494;11.768;2022-10-22T08:20:56;13.10;93.42
69543;SHT31;56762;49.494;11.768;2022-10-22T08:23:24;13.18;93.80
69543;SHT31;56762;49.494;11.768;2022-10-22T08:25:55;13.23;93.66
69543;SHT31;56762;49.494;11.768;2022-10-22T08:28:24;13.27;93.80
69543;SHT31;56762;49.494;11.768;2022-10-22T08:30:54;13.40;93.36
69543;SHT31;56762;49.494;11.768;2022-10-22T08:33:23;13.49;93.21
69543;SHT31;56762;49.494;11.768;2022-10-22T08:35:51;13.54;93.05
69543;SHT31;56762;49.494;11.768;2022-10-22T08:38:19;13.60;92.87
69543;SHT31;56762;49.494;11.768;2022-10-22T08:41:00;13.66;92.90
69543;SHT31;56762;49.494;11.768;2022-10-22T08:44:06;13.73;92.62
69543;SHT31;56762;49.494;11.768;2022-10-22T08:46:58;13.84;91.43
69543;SHT31;56762;49.494;11.768;2022-10-22T08:49:34;13.87;91.45
69543;SHT31;56762;49.494;11.768;2022-10-22T08:52:09;13.91;90.69
69543;SHT31;56762;49.494;11.768;2022-10-22T08:54:46;13.98;90.28
69543;SHT31;56762;49.494;11.768;2022-10-22T08:57:35;13.97;90.27
69543;SHT31;56762;49.494;11.768;2022-10-22T09:00:11;13.97;90.33
69543;SHT31;56762;49.494;11.768;2022-10-22T09:02:51;13.95;90.39
69543;SHT31;56762;49.494;11.768;2022-10-22T09:05:32;14.00;90.13
69543;SHT31;56762;49.494;11.768;2022-10-22T09:08:03;14.02;90.24
69543;SHT31;56762;49.494;11.768;2022-10-22T09:10:35;14.04;90.07
69543;SHT31;56762;49.494;11.768;2022-10-22T09:13:03;14.04;90.17
69543;SHT31;56762;49.494;11.768;2022-10-22T09:15:33;14.07;90.19
69543;SHT31;56762;49.494;11.768;2022-10-22T09:18:16;14.09;89.69
69543;SHT31;56762;49.494;11.768;2022-10-22T09:20:54;14.08;89.67
69543;SHT31;56762;49.494;11.768;2022-10-22T09:23:31;14.08;88.38
69543;SHT31;56762;49.494;11.768;2022-10-22T09:26:00;14.07;89.06
69543;SHT31;56762;49.494;11.768;2022-10-22T09:28:27;14.02;89.32
69543;SHT31;56762;49.494;11.768;2022-10-22T09:30:57;14.02;89.23
69543;SHT31;56762;49.494;11.768;2022-10-22T09:33:27;14.01;89.50
69543;SHT31;56762;49.494;11.768;2022-10-22T09:35:58;14.01;89.08
69543;SHT31;56762;49.494;11.768;2022-10-22T09:38:31;14.02;89.04
69543;SHT31;56762;49.494;11.768;2022-10-22T09:41:00;14.05;88.47
69543;SHT31;56762;49.494;11.768;2022-10-22T09:43:30;14.07;88.48
69543;SHT31;56762;49.494;11.768;2022-10-22T09:46:00;14.11;88.53
69543;SHT31;56762;49.494;11.768;2022-10-22T09:48:32;14.14;88.67
69543;SHT31;56762;49.494;11.768;2022-10-22T09:51:05;14.19;88.75
69543;SHT31;56762;49.494;11.768;2022-10-22T09:53:38;14.21;87.75
69543;SHT31;56762;49.494;11.768;2022-10-22T09:56:14;14.30;87.06
69543;SHT31;56762;49.494;11.768;2022-10-22T09:58:45;14.33;87.09
69543;SHT31;56762;49.494;11.768;2022-10-22T10:01:18;14.40;87.46
69543;SHT31;56762;49.494;11.768;2022-10-22T10:03:47;14.48;87.46
69543;SHT31;56762;49.494;11.768;2022-10-22T10:06:20;14.55;87.05
69543;SHT31;56762;49.494;11.768;2022-10-22T10:08:49;14.65;85.45
69543;SHT31;56762;49.494;11.768;2022-10-22T10:11:24;14.67;85.14
69543;SHT31;56762;49.494;11.768;2022-10-22T10:14:03;14.75;85.21
69543;SHT31;56762;49.494;11.768;2022-10-22T10:16:42;14.83;84.88
69543;SHT31;56762;49.494;11.768;2022-10-22T10:19:24;14.91;83.79
69543;SHT31;56762;49.494;11.768;2022-10-22T10:22:02;14.98;83.61
69543;SHT31;56762;49.494;11.768;2022-10-22T10:24:39;15.07;82.85
69543;SHT31;56762;49.494;11.768;2022-10-22T10:27:14;15.11;82.43
69543;SHT31;56762;49.494;11.768;2022-10-22T10:29:53;15.21;82.44
69543;SHT31;56762;49.494;11.768;2022-10-22T10:32:33;15.28;81.99
69543;SHT31;56762;49.494;11.768;2022-10-22T10:35:16;15.32;81.38
69543;SHT31;56762;49.494;11.768;2022-10-22T10:37:58;15.32;81.22
69543;SHT31;56762;49.494;11.768;2022-10-22T10:40:36;15.32;81.51
69543;SHT31;56762;49.494;11.768;2022-10-22T10:43:09;15.28;81.61
69543;SHT31;56762;49.494;11.768;2022-10-22T10:45:47;15.26;81.59
69543;SHT31;56762;49.494;11.768;2022-10-22T10:48:38;15.23;82.50
69543;SHT31;56762;49.494;11.768;2022-10-22T10:51:22;15.23;82.48
69543;SHT31;56762;49.494;11.768;2022-10-22T10:54:07;15.23;82.85
69543;SHT31;56762;49.494;11.768;2022-10-22T10:56:42;15.28;82.02
69543;SHT31;56762;49.494;11.768;2022-10-22T10:59:16;15.30;82.08
69543;SHT31;56762;49.494;11.768;2022-10-22T11:01:54;15.28;82.60
69543;SHT31;56762;49.494;11.768;2022-10-22T11:04:46;15.34;82.33
69543;SHT31;56762;49.494;11.768;2022-10-22T11:07:24;15.37;81.59
69543;SHT31;56762;49.494;11.768;2022-10-22T11:10:03;15.37;82.52
69543;SHT31;56762;49.494;11.768;2022-10-22T11:12:38;15.45;81.58
69543;SHT31;56762;49.494;11.768;2022-10-22T11:15:15;15.48;81.45
69543;SHT31;56762;49.494;11.768;2022-10-22T11:17:48;15.47;81.97
69543;SHT31;56762;49.494;11.768;2022-10-22T11:20:19;15.42;81.80
69543;SHT31;56762;49.494;11.768;2022-10-22T11:22:50;15.45;82.01
69543;SHT31;56762;49.494;11.768;2022-10-22T11:25:44;15.55;82.08
69543;SHT31;56762;49.494;11.768;2022-10-22T11:28:15;15.62;80.90
69543;SHT31;56762;49.494;11.768;2022-10-22T11:30:46;15.70;80.86
69543;SHT31;56762;49.494;11.768;2022-10-22T11:33:18;15.63;80.04
69543;SHT31;56762;49.494;11.768;2022-10-22T11:35:50;15.61;79.97
69543;SHT31;56762;49.494;11.768;2022-10-22T11:38:23;15.61;80.52
69543;SHT31;56762;49.494;11.768;2022-10-22T11:41:00;15.59;80.78
69543;SHT31;56762;49.494;11.768;2022-10-22T11:43:31;15.59;80.02
69543;SHT31;56762;49.494;11.768;2022-10-22T11:46:07;15.68;80.22
69543;SHT31;56762;49.494;11.768;2022-10-22T11:48:36;15.75;80.52
69543;SHT31;56762;49.494;11.768;2022-10-22T11:51:28;15.85;80.17
69543;SHT31;56762;49.494;11.768;2022-10-22T11:54:00;15.85;79.45
69543;SHT31;56762;49.494;11.768;2022-10-22T11:56:36;15.93;79.19
69543;SHT31;56762;49.494;11.768;2022-10-22T11:59:37;15.98;79.43
69543;SHT31;56762;49.494;11.768;2022-10-22T12:02:24;16.00;79.07
69543;SHT31;56762;49.494;11.768;2022-10-22T12:05:18;16.02;78.91
69543;SHT31;56762;49.494;11.768;2022-10-22T12:07:52;16.09;78.98
69543;SHT31;56762;49.494;11.768;2022-10-22T12:10:26;16.16;78.78
69543;SHT31;56762;49.494;11.768;2022-10-22T12:12:55;16.20;78.45
69543;SHT31;56762;49.494;11.768;2022-10-22T12:15:26;16.31;77.84
69543;SHT31;56762;49.494;11.768;2022-10-22T12:17:59;16.39;77.81
69543;SHT31;56762;49.494;11.768;2022-10-22T12:20:28;16.47;77.71
69543;SHT31;56762;49.494;11.768;2022-10-22T12:22:58;16.50;78.08
69543;SHT31;56762;49.494;11.768;2022-10-22T12:25:29;16.53;78.17
69543;SHT31;56762;49.494;11.768;2022-10-22T12:28:01;16.58;77.13
69543;SHT31;56762;49.494;11.768;2022-10-22T12:30:30;16.63;76.93
69543;SHT31;56762;49.494;11.768;2022-10-22T12:33:01;16.65;77.77
69543;SHT31;56762;49.494;11.768;2022-10-22T12:35:31;16.74;77.56
69543;SHT31;56762;49.494;11.768;2022-10-22T12:38:03;16.91;76.60
69543;SHT31;56762;49.494;11.768;2022-10-22T12:40:33;16.91;75.29
69543;SHT31;56762;49.494;11.768;2022-10-22T12:43:09;16.98;74.11
69543;SHT31;56762;49.494;11.768;2022-10-22T12:45:38;17.05;72.81
69543;SHT31;56762;49.494;11.768;2022-10-22T12:48:13;17.01;73.37
69543;SHT31;56762;49.494;11.768;2022-10-22T12:50:44;17.01;73.67
69543;SHT31;56762;49.494;11.768;2022-10-22T12:53:16;16.94;74.24
69543;SHT31;56762;49.494;11.768;2022-10-22T12:55:46;16.94;74.18
69543;SHT31;56762;49.494;11.768;2022-10-22T12:58:18;16.95;74.05
69543;SHT31;56762;49.494;11.768;2022-10-22T13:00:47;16.89;74.07
69543;SHT31;56762;49.494;11.768;2022-10-22T13:03:25;16.85;74.65
69543;SHT31;56762;49.494;11.768;2022-10-22T13:05:53;16.71;75.32
69543;SHT31;56762;49.494;11.768;2022-10-22T13:08:26;16.72;74.90
69543;SHT31;56762;49.494;11.768;2022-10-22T13:10:54;16.65;74.46
69543;SHT31;56762;49.494;11.768;2022-10-22T13:13:33;16.72;74.11
69543;SHT31;56762;49.494;11.768;2022-10-22T13:16:17;16.79;73.19
69543;SHT31;56762;49.494;11.768;2022-10-22T13:18:46;16.82;73.39
69543;SHT31;56762;49.494;11.768;2022-10-22T13:21:26;16.87;73.23
69543;SHT31;56762;49.494;11.768;2022-10-22T13:23:57;16.91;72.05
69543;SHT31;56762;49.494;11.768;2022-10-22T13:26:31;16.96;72.02
69543;SHT31;56762;49.494;11.768;2022-10-22T13:29:01;16.96;72.35
69543;SHT31;56762;49.494;11.768;2022-10-22T13:31:30;16.88;73.68
69543;SHT31;56762;49.494;11.768;2022-10-22T13:34:01;16.92;71.85
69543;SHT31;56762;49.494;11.768;2022-10-22T13:36:37;16.91;72.40
69543;SHT31;56762;49.494;11.768;2022-10-22T13:39:12;16.89;72.80
69543;SHT31;56762;49.494;11.768;2022-10-22T13:41:39;16.82;72.28
69543;SHT31;56762;49.494;11.768;2022-10-22T13:44:07;16.82;71.43
69543;SHT31;56762;49.494;11.768;2022-10-22T13:46:36;16.78;72.21
69543;SHT31;56762;49.494;11.768;2022-10-22T13:49:13;16.72;73.58
69543;SHT31;56762;49.494;11.768;2022-10-22T13:51:42;16.74;73.78
69543;SHT31;56762;49.494;11.768;2022-10-22T13:54:15;16.74;73.53
69543;SHT31;56762;49.494;11.768;2022-10-22T13:56:45;16.78;72.63
69543;SHT31;56762;49.494;11.768;2022-10-22T13:59:13;16.84;71.82
69543;SHT31;56762;49.494;11.768;2022-10-22T14:01:48;16.89;73.68
69543;SHT31;56762;49.494;11.768;2022-10-22T14:04:16;17.01;73.15
69543;SHT31;56762;49.494;11.768;2022-10-22T14:06:44;16.94;73.55
69543;SHT31;56762;49.494;11.768;2022-10-22T14:09:14;16.92;70.62
69543;SHT31;56762;49.494;11.768;2022-10-22T14:11:43;16.79;71.25
69543;SHT31;56762;49.494;11.768;2022-10-22T14:14:11;16.77;71.08
69543;SHT31;56762;49.494;11.768;2022-10-22T14:16:42;16.65;71.72
69543;SHT31;56762;49.494;11.768;2022-10-22T14:19:14;16.57;72.51
69543;SHT31;56762;49.494;11.768;2022-10-22T14:21:43;16.47;73.67
69543;SHT31;56762;49.494;11.768;2022-10-22T14:24:11;16.40;74.14
69543;SHT31;56762;49.494;11.768;2022-10-22T14:26:40;16.36;74.34
69543;SHT31;56762;49.494;11.768;2022-10-22T14:29:08;16.33;74.59
69543;SHT31;56762;49.494;11.768;2022-10-22T14:31:37;16.26;74.98
69543;SHT31;56762;49.494;11.768;2022-10-22T14:34:12;16.19;75.59
69543;SHT31;56762;49.494;11.768;2022-10-22T14:36:41;16.10;74.99
69543;SHT31;56762;49.494;11.768;2022-10-22T14:39:10;16.08;74.99
69543;SHT31;56762;49.494;11.768;2022-10-22T14:41:42;16.05;73.73
69543;SHT31;56762;49.494;11.768;2022-10-22T14:44:11;15.98;73.87
69543;SHT31;56762;49.494;11.768;2022-10-22T14:46:40;15.93;74.59
69543;SHT31;56762;49.494;11.768;2022-10-22T14:49:11;15.86;75.43
69543;SHT31;56762;49.494;11.768;2022-10-22T14:51:40;15.79;75.92
69543;SHT31;56762;49.494;11.768;2022-10-22T14:54:08;15.78;75.68
69543;SHT31;56762;49.494;11.768;2022-10-22T14:56:36;15.72;75.94
69543;SHT31;56762;49.494;11.768;2022-10-22T14:59:08;15.65;76.46
69543;SHT31;56762;49.494;11.768;2022-10-22T15:01:36;15.63;76.45
69543;SHT31;56762;49.494;11.768;2022-10-22T15:04:08;15.61;77.26
69543;SHT31;56762;49.494;11.768;2022-10-22T15:06:36;15.54;77.79
69543;SHT31;56762;49.494;11.768;2022-10-22T15:09:04;15.47;77.85
69543;SHT31;56762;49.494;11.768;2022-10-22T15:11:32;15.44;78.05
69543;SHT31;56762;49.494;11.768;2022-10-22T15:14:02;15.37;78.79
69543;SHT31;56762;49.494;11.768;2022-10-22T15:16:32;15.32;79.60
69543;SHT31;56762;49.494;11.768;2022-10-22T15:19:00;15.28;79.59
69543;SHT31;56762;49.494;11.768;2022-10-22T15:21:28;15.27;79.41
69543;SHT31;56762;49.494;11.768;2022-10-22T15:23:56;15.21;80.21
69543;SHT31;56762;49.494;11.768;2022-10-22T15:26:24;15.18;80.29
69543;SHT31;56762;49.494;11.768;2022-10-22T15:28:52;15.16;80.43
69543;SHT31;56762;49.494;11.768;2022-10-22T15:31:41;15.10;80.66
69543;SHT31;56762;49.494;11.768;2022-10-22T15:34:09;15.04;80.37
69543;SHT31;56762;49.494;11.768;2022-10-22T15:36:38;15.03;80.18
69543;SHT31;56762;49.494;11.768;2022-10-22T15:39:07;15.03;80.47
69543;SHT31;56762;49.494;11.768;2022-10-22T15:41:36;14.97;81.01
69543;SHT31;56762;49.494;11.768;2022-10-22T15:44:04;14.91;81.79
69543;SHT31;56762;49.494;11.768;2022-10-22T15:46:34;14.84;82.26